sensor_id;sensor_type;location;lat;lon;timestamp;P1;durP1;ratioP1;P2;durP2;ratioP2
74473;SDS011;62922;-6.168;106.796;2023-07-31T00:02:10;54.45;;;27.83;;
74473;SDS011;62922;-6.168;106.796;2023-07-31T00:04:36;52.05;;;25.08;;
74473;SDS011;62922;-6.168;106.796;2023-07-31T00:07:02;46.08;;;25.65;;
74473;SDS011;62922;-6.168;106.796;2023-07-31T00:09:29;48.13;;;27.13;;
74473;SDS011;62922;-6.168;106.796;2023-07-31T00:11:55;46.15;;;26.40;;
74473;SDS011;62922;-6.168;106.796;2023-07-31T00:14:22;45.67;;;26.08;;
74473;SDS011;62922;-6.168;106.796;2023-07-31T00:16:50;48.75;;;27.15;;
74473;SDS011;62922;-6.168;106.796;2023-07-31T00:19:17;54.45;;;27.08;;
74473;SDS011;62922;-6.168;106.796;2023-07-31T00:21:46;58.15;;;28.65;;
74473;SDS011;62922;-6.168;106.796;2023-07-31T00:24:12;43.90;;;28.15;;
74473;SDS011;62922;-6.168;106.796;2023-07-31T00:26:38;48.45;;;26.45;;
74473;SDS011;62922;-6.168;106.796;2023-07-31T00:29:05;43.22;;;24.08;;
74473;SDS011;62922;-6.168;106.796;2023-07-31T00:31:31;40.97;;;25.67;;
74473;SDS011;62922;-6.168;106.796;2023-07-31T00:33:57;42.60;;;25.40;;
74473;SDS011;62922;-6.168;106.796;2023-07-31T00:36:24;47.08;;;25.02;;
74473;SDS011;62922;-6.168;106.796;2023-07-31T00:38:50;41.35;;;24.15;;
74473;SDS011;62922;-6.168;106.796;2023-07-31T00:41:16;41.65;;;24.35;;
74473;SDS011;62922;-6.168;106.796;2023-07-31T00:43:43;44.60;;;24.00;;
74473;SDS011;62922;-6.168;106.796;2023-07-31T00:46:09;47.47;;;24.98;;
74473;SDS011;62922;-6.168;106.796;2023-07-31T00:48:36;42.17;;;24.42;;
74473;SDS011;62922;-6.168;106.796;2023-07-31T00:51:04;41.17;;;24.55;;
74473;SDS011;62922;-6.168;106.796;2023-07-31T00:53:31;44.72;;;25.60;;
74473;SDS011;62922;-6.168;106.796;2023-07-31T00:55:57;40.15;;;23.92;;
74473;SDS011;62922;-6.168;106.796;2023-07-31T00:58:24;45.97;;;24.75;;
74473;SDS011;62922;-6.168;106.796;2023-07-31T01:00:51;43.78;;;24.70;;
74473;SDS011;62922;-6.168;106.796;2023-07-31T01:03:17;38.80;;;24.50;;
74473;SDS011;62922;-6.168;106.796;2023-07-31T01:11:28;39.38;;;23.80;;
74473;SDS011;62922;-6.168;106.796;2023-07-31T01:14:00;42.95;;;24.65;;
74473;SDS011;62922;-6.168;106.796;2023-07-31T01:16:27;53.90;;;25.98;;
74473;SDS011;62922;-6.168;106.796;2023-07-31T01:18:53;47.58;;;25.55;;
74473;SDS011;62922;-6.168;106.796;2023-07-31T01:23:51;47.75;;;25.33;;
74473;SDS011;62922;-6.168;106.796;2023-07-31T01:26:43;35.08;;;23.42;;
74473;SDS011;62922;-6.168;106.796;2023-07-31T01:29:17;39.03;;;23.17;;
74473;SDS011;62922;-6.168;106.796;2023-07-31T01:31:56;42.65;;;24.17;;
74473;SDS011;62922;-6.168;106.796;2023-07-31T01:34:26;41.55;;;22.77;;
74473;SDS011;62922;-6.168;106.796;2023-07-31T01:36:55;41.80;;;23.45;;
74473;SDS011;62922;-6.168;106.796;2023-07-31T01:39:23;38.03;;;21.98;;
74473;SDS011;62922;-6.168;106.796;2023-07-31T01:41:50;47.75;;;23.50;;
74473;SDS011;62922;-6.168;106.796;2023-07-31T01:44:16;41.22;;;22.80;;
74473;SDS011;62922;-6.168;106.796;2023-07-31T01:46:45;39.72;;;23.08;;
74473;SDS011;62922;-6.168;106.796;2023-07-31T01:49:12;42.58;;;22.65;;
74473;SDS011;62922;-6.168;106.796;2023-07-31T01:51:38;42.28;;;22.10;;
74473;SDS011;62922;-6.168;106.796;2023-07-31T01:54:04;37.88;;;21.52;;
74473;SDS011;62922;-6.168;106.796;2023-07-31T01:56:31;41.15;;;22.02;;
74473;SDS011;62922;-6.168;106.796;2023-07-31T01:58:57;35.67;;;21.70;;
74473;SDS011;62922;-6.168;106.796;2023-07-31T02:01:23;46.40;;;24.08;;
74473;SDS011;62922;-6.168;106.796;2023-07-31T02:03:50;39.00;;;22.58;;
74473;SDS011;62922;-6.168;106.796;2023-07-31T02:06:19;35.05;;;22.27;;
74473;SDS011;62922;-6.168;106.796;2023-07-31T02:08:46;35.47;;;21.80;;
74473;SDS011;62922;-6.168;106.796;2023-07-31T02:11:12;36.33;;;22.38;;
74473;SDS011;62922;-6.168;106.796;2023-07-31T02:13:38;39.13;;;21.42;;
74473;SDS011;62922;-6.168;106.796;2023-07-31T02:16:05;37.25;;;20.42;;
74473;SDS011;62922;-6.168;106.796;2023-07-31T02:18:31;34.35;;;19.38;;
74473;SDS011;62922;-6.168;106.796;2023-07-31T02:20:57;45.63;;;22.10;;
74473;SDS011;62922;-6.168;106.796;2023-07-31T02:23:24;37.85;;;21.75;;
74473;SDS011;62922;-6.168;106.796;2023-07-31T02:25:50;41.28;;;21.10;;
74473;SDS011;62922;-6.168;106.796;2023-07-31T02:28:16;44.63;;;23.23;;
74473;SDS011;62922;-6.168;106.796;2023-07-31T02:30:44;37.38;;;22.15;;
74473;SDS011;62922;-6.168;106.796;2023-07-31T02:33:14;33.53;;;21.50;;
74473;SDS011;62922;-6.168;106.796;2023-07-31T02:35:41;34.63;;;20.50;;
74473;SDS011;62922;-6.168;106.796;2023-07-31T02:38:08;40.03;;;22.13;;
74473;SDS011;62922;-6.168;106.796;2023-07-31T02:40:34;35.35;;;21.50;;
74473;SDS011;62922;-6.168;106.796;2023-07-31T02:43:00;41.70;;;22.70;;
74473;SDS011;62922;-6.168;106.796;2023-07-31T02:45:27;37.33;;;23.77;;
74473;SDS011;62922;-6.168;106.796;2023-07-31T02:47:53;46.30;;;24.60;;
74473;SDS011;62922;-6.168;106.796;2023-07-31T02:50:19;33.08;;;22.10;;
74473;SDS011;62922;-6.168;106.796;2023-07-31T02:52:48;40.83;;;22.75;;
74473;SDS011;62922;-6.168;106.796;2023-07-31T02:55:17;37.45;;;22.33;;
74473;SDS011;62922;-6.168;106.796;2023-07-31T02:57:43;39.90;;;22.08;;
74473;SDS011;62922;-6.168;106.796;2023-07-31T03:00:09;34.13;;;21.48;;
74473;SDS011;62922;-6.168;106.796;2023-07-31T03:02:36;36.97;;;21.90;;
74473;SDS011;62922;-6.168;106.796;2023-07-31T03:05:02;34.50;;;20.80;;
74473;SDS011;62922;-6.168;106.796;2023-07-31T03:07:29;28.92;;;20.52;;
74473;SDS011;62922;-6.168;106.796;2023-07-31T03:09:56;29.92;;;19.90;;
74473;SDS011;62922;-6.168;106.796;2023-07-31T03:12:22;32.47;;;20.08;;
74473;SDS011;62922;-6.168;106.796;2023-07-31T03:14:48;34.58;;;20.17;;
74473;SDS011;62922;-6.168;106.796;2023-07-31T03:17:18;33.50;;;19.35;;
74473;SDS011;62922;-6.168;106.796;2023-07-31T03:19:44;33.03;;;20.83;;
74473;SDS011;62922;-6.168;106.796;2023-07-31T03:22:10;35.75;;;21.80;;
74473;SDS011;62922;-6.168;106.796;2023-07-31T03:24:37;36.92;;;20.92;;
74473;SDS011;62922;-6.168;106.796;2023-07-31T03:27:03;32.88;;;19.95;;
74473;SDS011;62922;-6.168;106.796;2023-07-31T03:29:30;39.35;;;21.45;;
74473;SDS011;62922;-6.168;106.796;2023-07-31T03:31:56;30.42;;;19.33;;
74473;SDS011;62922;-6.168;106.796;2023-07-31T03:34:22;27.70;;;20.25;;
74473;SDS011;62922;-6.168;106.796;2023-07-31T03:36:49;41.95;;;20.85;;
74473;SDS011;62922;-6.168;106.796;2023-07-31T03:39:15;29.88;;;20.15;;
74473;SDS011;62922;-6.168;106.796;2023-07-31T03:41:42;31.20;;;19.75;;
74473;SDS011;62922;-6.168;106.796;2023-07-31T03:44:08;33.85;;;20.33;;
74473;SDS011;62922;-6.168;106.796;2023-07-31T03:46:34;37.08;;;20.80;;
74473;SDS011;62922;-6.168;106.796;2023-07-31T03:49:01;29.27;;;18.45;;
74473;SDS011;62922;-6.168;106.796;2023-07-31T03:51:27;36.33;;;23.30;;
74473;SDS011;62922;-6.168;106.796;2023-07-31T03:53:56;37.03;;;22.63;;
74473;SDS011;62922;-6.168;106.796;2023-07-31T03:56:22;41.42;;;25.65;;
74473;SDS011;62922;-6.168;106.796;2023-07-31T03:58:49;38.70;;;24.58;;
74473;SDS011;62922;-6.168;106.796;2023-07-31T04:01:19;35.88;;;21.10;;
74473;SDS011;62922;-6.168;106.796;2023-07-31T04:03:47;32.00;;;21.15;;
74473;SDS011;62922;-6.168;106.796;2023-07-31T04:06:14;30.13;;;20.55;;
74473;SDS011;62922;-6.168;106.796;2023-07-31T04:08:43;35.08;;;21.85;;
74473;SDS011;62922;-6.168;106.796;2023-07-31T04:11:10;72.22;;;26.70;;
74473;SDS011;62922;-6.168;106.796;2023-07-31T04:13:37;43.10;;;23.48;;
74473;SDS011;62922;-6.168;106.796;2023-07-31T04:16:04;47.42;;;25.58;;
74473;SDS011;62922;-6.168;106.796;2023-07-31T04:18:31;56.95;;;30.17;;
74473;SDS011;62922;-6.168;106.796;2023-07-31T04:21:00;54.53;;;32.67;;
74473;SDS011;62922;-6.168;106.796;2023-07-31T04:23:27;94.00;;;58.53;;
74473;SDS011;62922;-6.168;106.796;2023-07-31T04:25:54;89.70;;;55.55;;
74473;SDS011;62922;-6.168;106.796;2023-07-31T04:28:22;67.68;;;42.40;;
74473;SDS011;62922;-6.168;106.796;2023-07-31T04:30:51;71.75;;;40.30;;
74473;SDS011;62922;-6.168;106.796;2023-07-31T04:33:18;66.88;;;39.15;;
74473;SDS011;62922;-6.168;106.796;2023-07-31T04:35:54;65.75;;;40.28;;
74473;SDS011;62922;-6.168;106.796;2023-07-31T04:38:21;79.47;;;41.55;;
74473;SDS011;62922;-6.168;106.796;2023-07-31T04:40:47;72.80;;;40.67;;
74473;SDS011;62922;-6.168;106.796;2023-07-31T04:43:16;63.42;;;37.92;;
74473;SDS011;62922;-6.168;106.796;2023-07-31T04:45:45;61.00;;;35.75;;
74473;SDS011;62922;-6.168;106.796;2023-07-31T04:48:13;71.43;;;36.05;;
74473;SDS011;62922;-6.168;106.796;2023-07-31T04:50:40;55.05;;;33.38;;
74473;SDS011;62922;-6.168;106.796;2023-07-31T04:53:06;64.80;;;37.05;;
74473;SDS011;62922;-6.168;106.796;2023-07-31T04:55:32;59.53;;;34.05;;
74473;SDS011;62922;-6.168;106.796;2023-07-31T04:57:59;59.45;;;33.38;;
74473;SDS011;62922;-6.168;106.796;2023-07-31T05:00:25;45.55;;;29.27;;
74473;SDS011;62922;-6.168;106.796;2023-07-31T05:02:51;45.65;;;26.65;;
74473;SDS011;62922;-6.168;106.796;2023-07-31T05:05:18;61.80;;;29.25;;
74473;SDS011;62922;-6.168;106.796;2023-07-31T05:07:44;65.53;;;28.25;;
74473;SDS011;62922;-6.168;106.796;2023-07-31T05:10:10;66.57;;;29.80;;
74473;SDS011;62922;-6.168;106.796;2023-07-31T05:12:37;71.50;;;30.70;;
74473;SDS011;62922;-6.168;106.796;2023-07-31T05:15:03;61.42;;;27.77;;
74473;SDS011;62922;-6.168;106.796;2023-07-31T05:17:30;57.53;;;26.33;;
74473;SDS011;62922;-6.168;106.796;2023-07-31T05:19:57;63.22;;;27.00;;
74473;SDS011;62922;-6.168;106.796;2023-07-31T05:22:23;65.50;;;27.73;;
74473;SDS011;62922;-6.168;106.796;2023-07-31T05:24:49;57.83;;;25.25;;
74473;SDS011;62922;-6.168;106.796;2023-07-31T05:27:21;61.53;;;26.42;;
74473;SDS011;62922;-6.168;106.796;2023-07-31T05:29:48;54.88;;;26.13;;
74473;SDS011;62922;-6.168;106.796;2023-07-31T05:32:14;61.38;;;25.52;;
74473;SDS011;62922;-6.168;106.796;2023-07-31T05:34:41;55.83;;;23.92;;
74473;SDS011;62922;-6.168;106.796;2023-07-31T05:37:07;62.42;;;24.40;;
74473;SDS011;62922;-6.168;106.796;2023-07-31T05:39:35;51.33;;;23.88;;
74473;SDS011;62922;-6.168;106.796;2023-07-31T05:42:01;62.42;;;23.98;;
74473;SDS011;62922;-6.168;106.796;2023-07-31T05:44:28;58.00;;;24.05;;
74473;SDS011;62922;-6.168;106.796;2023-07-31T05:46:54;60.63;;;24.20;;
74473;SDS011;62922;-6.168;106.796;2023-07-31T05:49:20;56.80;;;23.40;;
74473;SDS011;62922;-6.168;106.796;2023-07-31T05:51:47;54.67;;;22.25;;
74473;SDS011;62922;-6.168;106.796;2023-07-31T05:54:13;61.45;;;23.33;;
74473;SDS011;62922;-6.168;106.796;2023-07-31T05:56:39;54.08;;;22.65;;
74473;SDS011;62922;-6.168;106.796;2023-07-31T05:59:05;47.00;;;21.85;;
74473;SDS011;62922;-6.168;106.796;2023-07-31T06:01:32;54.42;;;23.88;;
74473;SDS011;62922;-6.168;106.796;2023-07-31T06:03:58;56.60;;;22.90;;
74473;SDS011;62922;-6.168;106.796;2023-07-31T06:06:24;48.28;;;21.48;;
74473;SDS011;62922;-6.168;106.796;2023-07-31T06:08:51;58.38;;;21.65;;
74473;SDS011;62922;-6.168;106.796;2023-07-31T06:11:17;43.33;;;21.42;;
74473;SDS011;62922;-6.168;106.796;2023-07-31T06:13:46;54.92;;;22.42;;
74473;SDS011;62922;-6.168;106.796;2023-07-31T06:16:14;45.80;;;20.50;;
74473;SDS011;62922;-6.168;106.796;2023-07-31T06:18:41;43.70;;;21.10;;
74473;SDS011;62922;-6.168;106.796;2023-07-31T06:21:08;42.40;;;19.83;;
74473;SDS011;62922;-6.168;106.796;2023-07-31T06:23:35;46.55;;;21.02;;
74473;SDS011;62922;-6.168;106.796;2023-07-31T06:26:01;36.78;;;19.27;;
74473;SDS011;62922;-6.168;106.796;2023-07-31T06:28:28;42.42;;;19.95;;
74473;SDS011;62922;-6.168;106.796;2023-07-31T06:30:55;50.17;;;21.00;;
74473;SDS011;62922;-6.168;106.796;2023-07-31T06:33:21;42.65;;;20.63;;
74473;SDS011;62922;-6.168;106.796;2023-07-31T06:35:48;38.05;;;20.27;;
74473;SDS011;62922;-6.168;106.796;2023-07-31T06:38:14;43.75;;;20.17;;
74473;SDS011;62922;-6.168;106.796;2023-07-31T06:40:40;45.38;;;19.35;;
74473;SDS011;62922;-6.168;106.796;2023-07-31T06:43:06;42.95;;;19.38;;
74473;SDS011;62922;-6.168;106.796;2023-07-31T06:45:35;35.88;;;19.38;;
74473;SDS011;62922;-6.168;106.796;2023-07-31T06:48:03;38.90;;;18.73;;
74473;SDS011;62922;-6.168;106.796;2023-07-31T06:50:30;36.53;;;18.33;;
74473;SDS011;62922;-6.168;106.796;2023-07-31T06:52:57;47.35;;;19.13;;
74473;SDS011;62922;-6.168;106.796;2023-07-31T06:55:24;39.42;;;19.42;;
74473;SDS011;62922;-6.168;106.796;2023-07-31T06:57:52;41.50;;;19.48;;
74473;SDS011;62922;-6.168;106.796;2023-07-31T07:00:19;41.65;;;19.05;;
74473;SDS011;62922;-6.168;106.796;2023-07-31T07:02:47;41.78;;;18.95;;
74473;SDS011;62922;-6.168;106.796;2023-07-31T07:05:14;44.53;;;19.52;;
74473;SDS011;62922;-6.168;106.796;2023-07-31T07:07:41;34.20;;;17.10;;
74473;SDS011;62922;-6.168;106.796;2023-07-31T07:10:07;34.08;;;17.95;;
74473;SDS011;62922;-6.168;106.796;2023-07-31T07:12:34;33.65;;;16.90;;
74473;SDS011;62922;-6.168;106.796;2023-07-31T07:15:01;36.17;;;17.48;;
74473;SDS011;62922;-6.168;106.796;2023-07-31T07:17:29;42.30;;;17.17;;
74473;SDS011;62922;-6.168;106.796;2023-07-31T07:19:57;41.05;;;17.58;;
74473;SDS011;62922;-6.168;106.796;2023-07-31T07:22:23;42.90;;;17.33;;
74473;SDS011;62922;-6.168;106.796;2023-07-31T07:24:51;39.95;;;15.77;;
74473;SDS011;62922;-6.168;106.796;2023-07-31T07:27:17;33.80;;;16.27;;
74473;SDS011;62922;-6.168;106.796;2023-07-31T07:29:43;35.35;;;15.70;;
74473;SDS011;62922;-6.168;106.796;2023-07-31T07:32:11;41.83;;;16.48;;
74473;SDS011;62922;-6.168;106.796;2023-07-31T07:34:37;35.78;;;15.60;;
74473;SDS011;62922;-6.168;106.796;2023-07-31T07:37:04;38.35;;;16.10;;
74473;SDS011;62922;-6.168;106.796;2023-07-31T07:39:31;29.15;;;16.05;;
74473;SDS011;62922;-6.168;106.796;2023-07-31T07:41:57;38.38;;;16.65;;
74473;SDS011;62922;-6.168;106.796;2023-07-31T07:44:23;38.70;;;16.23;;
74473;SDS011;62922;-6.168;106.796;2023-07-31T07:46:49;36.80;;;16.55;;
74473;SDS011;62922;-6.168;106.796;2023-07-31T07:49:16;38.47;;;16.90;;
74473;SDS011;62922;-6.168;106.796;2023-07-31T07:51:42;37.00;;;15.60;;
74473;SDS011;62922;-6.168;106.796;2023-07-31T07:54:08;34.47;;;15.82;;
74473;SDS011;62922;-6.168;106.796;2023-07-31T07:56:35;37.83;;;15.60;;
74473;SDS011;62922;-6.168;106.796;2023-07-31T07:59:01;33.58;;;15.52;;
74473;SDS011;62922;-6.168;106.796;2023-07-31T08:01:27;37.28;;;16.17;;
74473;SDS011;62922;-6.168;106.796;2023-07-31T08:03:54;40.33;;;15.68;;
74473;SDS011;62922;-6.168;106.796;2023-07-31T08:06:20;33.67;;;15.73;;
74473;SDS011;62922;-6.168;106.796;2023-07-31T08:08:48;44.03;;;15.52;;
74473;SDS011;62922;-6.168;106.796;2023-07-31T08:11:14;41.00;;;15.88;;
74473;SDS011;62922;-6.168;106.796;2023-07-31T08:13:40;40.05;;;14.82;;
74473;SDS011;62922;-6.168;106.796;2023-07-31T08:16:07;33.80;;;15.02;;
74473;SDS011;62922;-6.168;106.796;2023-07-31T08:18:34;31.58;;;14.55;;
74473;SDS011;62922;-6.168;106.796;2023-07-31T08:21:03;35.20;;;15.00;;
74473;SDS011;62922;-6.168;106.796;2023-07-31T08:23:29;29.52;;;14.00;;
74473;SDS011;62922;-6.168;106.796;2023-07-31T08:25:55;38.60;;;15.27;;
74473;SDS011;62922;-6.168;106.796;2023-07-31T08:28:22;34.65;;;14.68;;
74473;SDS011;62922;-6.168;106.796;2023-07-31T08:30:48;28.65;;;15.05;;
74473;SDS011;62922;-6.168;106.796;2023-07-31T08:33:15;38.05;;;15.48;;
74473;SDS011;62922;-6.168;106.796;2023-07-31T08:35:42;32.58;;;14.77;;
74473;SDS011;62922;-6.168;106.796;2023-07-31T08:38:08;38.28;;;14.32;;
74473;SDS011;62922;-6.168;106.796;2023-07-31T08:40:36;36.45;;;14.63;;
74473;SDS011;62922;-6.168;106.796;2023-07-31T08:43:04;41.53;;;15.07;;
74473;SDS011;62922;-6.168;106.796;2023-07-31T08:45:34;26.20;;;13.80;;
74473;SDS011;62922;-6.168;106.796;2023-07-31T08:48:01;39.55;;;15.65;;
74473;SDS011;62922;-6.168;106.796;2023-07-31T08:50:28;41.65;;;14.77;;
74473;SDS011;62922;-6.168;106.796;2023-07-31T08:52:54;34.20;;;13.95;;
74473;SDS011;62922;-6.168;106.796;2023-07-31T08:55:20;40.10;;;14.52;;
74473;SDS011;62922;-6.168;106.796;2023-07-31T08:57:50;39.13;;;14.52;;
74473;SDS011;62922;-6.168;106.796;2023-07-31T09:00:21;42.38;;;14.70;;
74473;SDS011;62922;-6.168;106.796;2023-07-31T09:05:19;42.60;;;14.48;;
74473;SDS011;62922;-6.168;106.796;2023-07-31T09:07:50;38.15;;;14.38;;
74473;SDS011;62922;-6.168;106.796;2023-07-31T09:10:17;41.22;;;14.00;;
74473;SDS011;62922;-6.168;106.796;2023-07-31T09:12:43;44.47;;;13.85;;
74473;SDS011;62922;-6.168;106.796;2023-07-31T09:15:11;42.08;;;14.75;;
74473;SDS011;62922;-6.168;106.796;2023-07-31T09:17:37;49.15;;;14.63;;
74473;SDS011;62922;-6.168;106.796;2023-07-31T09:20:13;35.38;;;13.23;;
74473;SDS011;62922;-6.168;106.796;2023-07-31T09:22:48;32.65;;;13.35;;
74473;SDS011;62922;-6.168;106.796;2023-07-31T09:27:49;33.10;;;13.60;;
74473;SDS011;62922;-6.168;106.796;2023-07-31T09:30:16;36.15;;;12.70;;
74473;SDS011;62922;-6.168;106.796;2023-07-31T09:32:44;40.88;;;13.18;;
74473;SDS011;62922;-6.168;106.796;2023-07-31T09:35:27;37.03;;;12.95;;
74473;SDS011;62922;-6.168;106.796;2023-07-31T09:37:57;40.92;;;13.77;;
74473;SDS011;62922;-6.168;106.796;2023-07-31T09:40:27;35.45;;;12.13;;
74473;SDS011;62922;-6.168;106.796;2023-07-31T09:42:56;32.88;;;12.32;;
74473;SDS011;62922;-6.168;106.796;2023-07-31T09:45:27;29.25;;;12.77;;
74473;SDS011;62922;-6.168;106.796;2023-07-31T09:47:54;34.70;;;12.80;;
74473;SDS011;62922;-6.168;106.796;2023-07-31T09:50:22;33.75;;;13.10;;
74473;SDS011;62922;-6.168;106.796;2023-07-31T09:52:50;36.83;;;12.95;;
74473;SDS011;62922;-6.168;106.796;2023-07-31T09:55:17;35.08;;;12.90;;
74473;SDS011;62922;-6.168;106.796;2023-07-31T09:57:45;39.47;;;13.55;;
74473;SDS011;62922;-6.168;106.796;2023-07-31T10:00:14;38.03;;;12.80;;
74473;SDS011;62922;-6.168;106.796;2023-07-31T10:02:45;30.83;;;12.88;;
74473;SDS011;62922;-6.168;106.796;2023-07-31T10:05:14;29.02;;;12.52;;
74473;SDS011;62922;-6.168;106.796;2023-07-31T10:07:43;33.53;;;13.20;;
74473;SDS011;62922;-6.168;106.796;2023-07-31T10:10:17;34.35;;;13.02;;
74473;SDS011;62922;-6.168;106.796;2023-07-31T10:12:46;40.53;;;13.40;;
74473;SDS011;62922;-6.168;106.796;2023-07-31T10:15:18;41.13;;;13.10;;
74473;SDS011;62922;-6.168;106.796;2023-07-31T10:17:47;40.03;;;13.25;;
74473;SDS011;62922;-6.168;106.796;2023-07-31T10:20:14;37.47;;;14.52;;
74473;SDS011;62922;-6.168;106.796;2023-07-31T10:22:42;35.53;;;14.30;;
74473;SDS011;62922;-6.168;106.796;2023-07-31T10:25:11;41.22;;;13.85;;
74473;SDS011;62922;-6.168;106.796;2023-07-31T10:27:38;35.60;;;13.65;;
74473;SDS011;62922;-6.168;106.796;2023-07-31T10:30:08;34.35;;;13.23;;
74473;SDS011;62922;-6.168;106.796;2023-07-31T10:32:38;41.75;;;13.98;;
74473;SDS011;62922;-6.168;106.796;2023-07-31T10:35:06;41.55;;;14.15;;
74473;SDS011;62922;-6.168;106.796;2023-07-31T10:37:37;39.08;;;14.07;;
74473;SDS011;62922;-6.168;106.796;2023-07-31T10:40:06;34.78;;;13.90;;
74473;SDS011;62922;-6.168;106.796;2023-07-31T10:42:37;38.30;;;15.18;;
74473;SDS011;62922;-6.168;106.796;2023-07-31T10:45:10;41.67;;;14.27;;
74473;SDS011;62922;-6.168;106.796;2023-07-31T10:47:44;39.28;;;14.82;;
74473;SDS011;62922;-6.168;106.796;2023-07-31T10:50:12;39.47;;;14.38;;
74473;SDS011;62922;-6.168;106.796;2023-07-31T10:52:39;37.20;;;13.73;;
74473;SDS011;62922;-6.168;106.796;2023-07-31T10:55:15;36.58;;;14.75;;
74473;SDS011;62922;-6.168;106.796;2023-07-31T10:57:54;41.88;;;16.80;;
74473;SDS011;62922;-6.168;106.796;2023-07-31T11:00:25;41.53;;;16.40;;
74473;SDS011;62922;-6.168;106.796;2023-07-31T11:03:08;49.13;;;18.17;;
74473;SDS011;62922;-6.168;106.796;2023-07-31T11:08:25;45.38;;;19.50;;
74473;SDS011;62922;-6.168;106.796;2023-07-31T11:13:35;46.63;;;20.85;;
74473;SDS011;62922;-6.168;106.796;2023-07-31T11:16:05;49.58;;;20.38;;
74473;SDS011;62922;-6.168;106.796;2023-07-31T11:18:31;46.67;;;19.90;;
74473;SDS011;62922;-6.168;106.796;2023-07-31T11:20:58;55.42;;;19.75;;
74473;SDS011;62922;-6.168;106.796;2023-07-31T11:23:24;124.65;;;42.35;;
74473;SDS011;62922;-6.168;106.796;2023-07-31T11:25:50;255.75;;;64.43;;
74473;SDS011;62922;-6.168;106.796;2023-07-31T11:28:18;1027.68;;;318.42;;
74473;SDS011;62922;-6.168;106.796;2023-07-31T11:30:45;692.20;;;198.82;;
74473;SDS011;62922;-6.168;106.796;2023-07-31T11:33:14;441.92;;;115.63;;
74473;SDS011;62922;-6.168;106.796;2023-07-31T11:35:43;351.77;;;88.20;;
74473;SDS011;62922;-6.168;106.796;2023-07-31T11:38:23;225.32;;;60.75;;
74473;SDS011;62922;-6.168;106.796;2023-07-31T11:40:52;142.60;;;39.47;;
74473;SDS011;62922;-6.168;106.796;2023-07-31T11:43:19;111.03;;;33.72;;
74473;SDS011;62922;-6.168;106.796;2023-07-31T11:45:50;102.88;;;31.75;;
74473;SDS011;62922;-6.168;106.796;2023-07-31T11:48:19;87.22;;;26.90;;
74473;SDS011;62922;-6.168;106.796;2023-07-31T11:50:49;73.18;;;23.98;;
74473;SDS011;62922;-6.168;106.796;2023-07-31T11:53:17;71.75;;;22.63;;
74473;SDS011;62922;-6.168;106.796;2023-07-31T11:56:05;58.25;;;20.10;;
74473;SDS011;62922;-6.168;106.796;2023-07-31T11:58:33;65.68;;;21.52;;
74473;SDS011;62922;-6.168;106.796;2023-07-31T12:01:01;52.53;;;19.80;;
74473;SDS011;62922;-6.168;106.796;2023-07-31T12:03:28;52.58;;;18.73;;
74473;SDS011;62922;-6.168;106.796;2023-07-31T12:05:55;55.35;;;18.80;;
74473;SDS011;62922;-6.168;106.796;2023-07-31T12:08:22;41.20;;;17.00;;
74473;SDS011;62922;-6.168;106.796;2023-07-31T12:10:51;51.10;;;19.05;;
74473;SDS011;62922;-6.168;106.796;2023-07-31T12:13:21;50.97;;;17.98;;
74473;SDS011;62922;-6.168;106.796;2023-07-31T12:15:53;51.05;;;17.55;;
74473;SDS011;62922;-6.168;106.796;2023-07-31T12:18:23;50.67;;;18.45;;
74473;SDS011;62922;-6.168;106.796;2023-07-31T12:20:54;49.42;;;17.77;;
74473;SDS011;62922;-6.168;106.796;2023-07-31T12:23:23;49.30;;;18.50;;
74473;SDS011;62922;-6.168;106.796;2023-07-31T12:26:04;45.37;;;18.00;;
74473;SDS011;62922;-6.168;106.796;2023-07-31T12:31:11;53.10;;;17.67;;
74473;SDS011;62922;-6.168;106.796;2023-07-31T12:33:39;46.53;;;18.30;;
74473;SDS011;62922;-6.168;106.796;2023-07-31T12:36:08;52.60;;;18.15;;
74473;SDS011;62922;-6.168;106.796;2023-07-31T12:38:42;41.33;;;17.02;;
74473;SDS011;62922;-6.168;106.796;2023-07-31T12:41:09;53.00;;;18.63;;
74473;SDS011;62922;-6.168;106.796;2023-07-31T12:43:36;51.70;;;18.95;;
74473;SDS011;62922;-6.168;106.796;2023-07-31T12:46:05;49.22;;;18.67;;
74473;SDS011;62922;-6.168;106.796;2023-07-31T12:48:34;52.95;;;19.98;;
74473;SDS011;62922;-6.168;106.796;2023-07-31T12:51:03;50.95;;;19.58;;
74473;SDS011;62922;-6.168;106.796;2023-07-31T12:53:29;50.50;;;20.52;;
74473;SDS011;62922;-6.168;106.796;2023-07-31T12:55:56;49.85;;;19.08;;
74473;SDS011;62922;-6.168;106.796;2023-07-31T12:58:23;52.60;;;20.00;;
74473;SDS011;62922;-6.168;106.796;2023-07-31T13:00:50;47.80;;;20.17;;
74473;SDS011;62922;-6.168;106.796;2023-07-31T13:03:16;58.53;;;22.33;;
74473;SDS011;62922;-6.168;106.796;2023-07-31T13:05:43;51.75;;;21.55;;
74473;SDS011;62922;-6.168;106.796;2023-07-31T13:08:09;46.85;;;21.10;;
74473;SDS011;62922;-6.168;106.796;2023-07-31T13:10:35;61.28;;;22.95;;
74473;SDS011;62922;-6.168;106.796;2023-07-31T13:13:01;62.50;;;23.58;;
74473;SDS011;62922;-6.168;106.796;2023-07-31T13:15:28;54.67;;;22.02;;
74473;SDS011;62922;-6.168;106.796;2023-07-31T13:17:54;51.63;;;23.90;;
74473;SDS011;62922;-6.168;106.796;2023-07-31T13:20:21;58.97;;;23.95;;
74473;SDS011;62922;-6.168;106.796;2023-07-31T13:22:47;61.05;;;24.92;;
74473;SDS011;62922;-6.168;106.796;2023-07-31T13:25:13;58.95;;;24.92;;
74473;SDS011;62922;-6.168;106.796;2023-07-31T13:27:40;58.38;;;23.63;;
74473;SDS011;62922;-6.168;106.796;2023-07-31T13:30:06;80.85;;;24.92;;
74473;SDS011;62922;-6.168;106.796;2023-07-31T13:32:33;59.60;;;24.00;;
74473;SDS011;62922;-6.168;106.796;2023-07-31T13:35:06;56.38;;;23.70;;
74473;SDS011;62922;-6.168;106.796;2023-07-31T13:37:34;60.30;;;24.30;;
74473;SDS011;62922;-6.168;106.796;2023-07-31T13:40:00;55.33;;;22.42;;
74473;SDS011;62922;-6.168;106.796;2023-07-31T13:42:30;55.30;;;22.52;;
74473;SDS011;62922;-6.168;106.796;2023-07-31T13:44:56;55.15;;;23.13;;
74473;SDS011;62922;-6.168;106.796;2023-07-31T13:47:23;54.22;;;22.88;;
74473;SDS011;62922;-6.168;106.796;2023-07-31T13:49:49;58.67;;;21.98;;
74473;SDS011;62922;-6.168;106.796;2023-07-31T13:52:15;66.22;;;23.92;;
74473;SDS011;62922;-6.168;106.796;2023-07-31T13:54:42;53.95;;;21.27;;
74473;SDS011;62922;-6.168;106.796;2023-07-31T13:57:08;49.35;;;20.50;;
74473;SDS011;62922;-6.168;106.796;2023-07-31T13:59:35;54.92;;;21.10;;
74473;SDS011;62922;-6.168;106.796;2023-07-31T14:02:02;50.55;;;21.52;;
74473;SDS011;62922;-6.168;106.796;2023-07-31T14:04:28;54.22;;;21.92;;
74473;SDS011;62922;-6.168;106.796;2023-07-31T14:06:56;56.25;;;22.00;;
74473;SDS011;62922;-6.168;106.796;2023-07-31T14:09:22;52.97;;;21.38;;
74473;SDS011;62922;-6.168;106.796;2023-07-31T14:11:49;47.22;;;20.55;;
74473;SDS011;62922;-6.168;106.796;2023-07-31T14:14:15;55.30;;;20.08;;
74473;SDS011;62922;-6.168;106.796;2023-07-31T14:16:43;52.45;;;20.63;;
74473;SDS011;62922;-6.168;106.796;2023-07-31T14:19:12;60.33;;;21.55;;
74473;SDS011;62922;-6.168;106.796;2023-07-31T14:21:38;56.97;;;20.17;;